Terminal Aerodrome Forecast
Issued by NWS

Home | Current Version | Previous Version | Graphics & Text | Print | Product List | Glossary On
Versions: 1 2 3 4 5 6 7 8 9 10 11 12 13 14 15 16
000
FTUS43 KMPX 030520
TAFAXN
TAF
KAXN 030520Z 0306/0406 16016KT P6SM -SN OVC025
     FM030800 18013KT 2SM -SN OVC020
     FM031000 18010KT 3/4SM -SN VV005
     FM031200 32019G27KT 1/4SM SN BLSN VV005
     FM031400 32023G31KT 3/4SM -SN BLSN FEW007 BKN020
     FM031800 32023G31KT 1 1/2SM BLSN FEW015 BKN040
     FM040100 30015G25KT P6SM SKC=

USA.gov is the U.S. government's official web portal to all federal, state and local government web resources and services.